createdAt,value
2023-03-17T00:01:23.686Z,69.90
2023-03-17T00:03:51.602Z,69.90
2023-03-17T00:06:26.074Z,69.90
2023-03-17T00:08:53.118Z,69.90
2023-03-17T00:11:21.151Z,69.90
2023-03-17T00:13:49.081Z,69.90
2023-03-17T00:16:24.731Z,69.90
2023-03-17T00:18:53.951Z,69.90
2023-03-17T00:21:39.043Z,69.80
2023-03-17T00:24:10.396Z,69.70
2023-03-17T00:26:37.850Z,69.60
2023-03-17T00:29:06.100Z,69.60
2023-03-17T00:31:34.381Z,69.50
2023-03-17T00:34:01.469Z,69.50
2023-03-17T00:36:31.463Z,69.40
2023-03-17T00:38:59.339Z,69.50
2023-03-17T00:41:27.353Z,69.60
2023-03-17T00:43:54.583Z,69.60
2023-03-17T00:46:27.676Z,69.70
2023-03-17T00:48:55.273Z,69.90
2023-03-17T00:51:23.404Z,70.00
2023-03-17T00:53:50.497Z,70.20
2023-03-17T00:56:20.826Z,70.30
2023-03-17T00:58:49.009Z,70.50
2023-03-17T01:01:16.313Z,70.60
2023-03-17T01:03:43.449Z,70.70
2023-03-17T01:06:12.788Z,70.80
2023-03-17T01:08:41.633Z,70.90
2023-03-17T01:11:20.167Z,71.00
2023-03-17T01:13:47.818Z,71.00
2023-03-17T01:16:15.808Z,71.00
2023-03-17T01:18:43.741Z,70.90
2023-03-17T01:21:11.155Z,70.90
2023-03-17T01:23:38.242Z,70.90
2023-03-17T01:34:06.323Z,70.80
2023-03-17T01:36:34.282Z,70.80
2023-03-17T01:39:01.544Z,70.80
2023-03-17T01:41:28.565Z,70.80
2023-03-17T01:43:55.528Z,70.70
2023-03-17T01:46:34.250Z,70.80
2023-03-17T01:49:13.400Z,70.80
2023-03-17T01:51:53.637Z,70.80
2023-03-17T01:54:27.125Z,70.80
2023-03-17T01:56:57.565Z,70.80
2023-03-17T01:59:30.829Z,70.80
2023-03-17T02:02:08.746Z,70.80
2023-03-17T02:04:36.738Z,70.90
2023-03-17T02:07:05.239Z,71.00
2023-03-17T02:09:34.144Z,71.00
2023-03-17T02:12:02.714Z,71.00
2023-03-17T02:14:30.153Z,71.00
2023-03-17T02:16:57.660Z,71.00
2023-03-17T02:19:25.107Z,71.00
2023-03-17T02:21:55.094Z,71.00
2023-03-17T02:24:39.054Z,71.00
2023-03-17T02:27:16.006Z,71.10
2023-03-17T02:29:46.386Z,71.20
2023-03-17T02:32:17.751Z,71.20
2023-03-17T02:34:46.618Z,71.30
2023-03-17T02:37:14.295Z,71.30
2023-03-17T02:39:41.552Z,71.30
2023-03-17T02:42:09.560Z,71.30
2023-03-17T02:44:36.845Z,71.40
2023-03-17T02:47:04.075Z,71.50
2023-03-17T02:49:32.021Z,71.60
2023-03-17T02:51:59.102Z,71.70
2023-03-17T02:54:26.610Z,71.70
2023-03-17T02:56:53.616Z,71.70
2023-03-17T02:59:20.809Z,71.80
2023-03-17T03:01:48.660Z,71.90
2023-03-17T03:04:15.730Z,72.00
2023-03-17T03:06:44.656Z,72.10
2023-03-17T03:09:12.779Z,72.10
2023-03-17T03:11:40.794Z,72.10
2023-03-17T03:14:08.561Z,72.10
2023-03-17T03:16:35.550Z,72.10
2023-03-17T03:19:02.876Z,72.10
2023-03-17T03:21:29.810Z,72.10
2023-03-17T03:23:57.015Z,72.10
2023-03-17T03:26:24.074Z,72.10
2023-03-17T03:28:51.341Z,72.10
2023-03-17T03:31:18.373Z,72.10
2023-03-17T03:33:46.299Z,72.10
2023-03-17T03:36:13.504Z,72.20
2023-03-17T03:38:41.750Z,72.20
2023-03-17T03:41:09.079Z,72.20
2023-03-17T03:43:36.349Z,72.20
2023-03-17T03:46:04.629Z,72.10
2023-03-17T03:48:31.760Z,72.10
2023-03-17T03:51:01.012Z,72.10
2023-03-17T03:53:29.519Z,72.10
2023-03-17T03:55:57.082Z,72.10
2023-03-17T03:58:24.353Z,72.20
2023-03-17T04:00:51.647Z,72.20
2023-03-17T04:03:18.650Z,72.20
2023-03-17T04:05:45.639Z,72.30
2023-03-17T04:08:12.753Z,72.20
2023-03-17T04:10:39.693Z,72.30
2023-03-17T04:13:06.718Z,72.30
2023-03-17T04:15:33.874Z,72.30
2023-03-17T04:18:01.187Z,72.30
2023-03-17T04:20:28.352Z,72.20
2023-03-17T04:22:56.208Z,72.20
2023-03-17T04:25:23.202Z,72.30
2023-03-17T04:27:50.236Z,72.40
2023-03-17T04:30:17.876Z,72.50
2023-03-17T04:32:45.329Z,72.50
2023-03-17T04:35:18.681Z,72.60
2023-03-17T04:37:46.530Z,72.60
2023-03-17T04:40:14.931Z,72.60
2023-03-17T04:42:42.270Z,72.70
2023-03-17T04:45:11.710Z,72.70
2023-03-17T04:47:39.440Z,72.80
2023-03-17T04:50:08.145Z,72.70
2023-03-17T04:52:36.906Z,72.70
2023-03-17T04:55:06.339Z,72.80
2023-03-17T04:57:33.389Z,72.80
2023-03-17T05:00:00.998Z,72.90
2023-03-17T05:02:29.188Z,73.00
2023-03-17T05:04:56.343Z,73.00
2023-03-17T05:07:23.327Z,72.90
2023-03-17T05:09:50.307Z,72.90
2023-03-17T05:12:17.286Z,72.90
2023-03-17T05:14:44.284Z,72.90
2023-03-17T05:17:11.467Z,73.00
2023-03-17T05:19:38.482Z,73.10
2023-03-17T05:22:05.845Z,73.20
2023-03-17T05:24:33.079Z,73.20
2023-03-17T05:27:00.098Z,73.40
2023-03-17T05:29:27.782Z,73.50
2023-03-17T05:31:54.850Z,73.60
2023-03-17T05:34:21.941Z,73.70
2023-03-17T05:36:48.879Z,73.70
2023-03-17T05:39:16.555Z,73.80
2023-03-17T05:41:43.552Z,73.80
2023-03-17T05:44:10.540Z,73.80
2023-03-17T05:46:37.767Z,73.90
2023-03-17T05:49:04.908Z,73.90
2023-03-17T05:51:32.067Z,73.90
2023-03-17T05:53:59.079Z,73.90
2023-03-17T05:56:27.382Z,73.80
2023-03-17T05:58:54.414Z,73.90
2023-03-17T06:01:21.816Z,73.90
2023-03-17T06:03:50.082Z,74.00
2023-03-17T06:06:17.258Z,74.10
2023-03-17T06:08:44.702Z,74.40
2023-03-17T06:11:12.058Z,74.50
2023-03-17T06:13:39.035Z,74.60
2023-03-17T06:16:06.754Z,74.60
2023-03-17T06:18:33.862Z,74.60
2023-03-17T06:21:00.790Z,74.60
2023-03-17T06:23:27.761Z,74.70
2023-03-17T06:25:54.825Z,74.80
2023-03-17T06:28:22.149Z,74.70
2023-03-17T06:30:49.818Z,74.70
2023-03-17T06:33:18.328Z,74.70
2023-03-17T06:35:45.975Z,74.70
2023-03-17T06:38:13.578Z,74.60
2023-03-17T06:40:40.697Z,74.60
2023-03-17T06:43:07.669Z,74.70
2023-03-17T06:45:34.884Z,74.80
2023-03-17T06:48:02.447Z,74.80
2023-03-17T06:50:29.819Z,74.80
2023-03-17T06:52:56.984Z,74.80
2023-03-17T06:55:24.436Z,74.90
2023-03-17T06:57:52.489Z,75.00
2023-03-17T07:00:21.109Z,75.20
2023-03-17T07:02:49.571Z,75.20
2023-03-17T07:05:16.666Z,75.20
2023-03-17T07:07:43.686Z,75.20
2023-03-17T07:10:11.571Z,75.10
2023-03-17T07:12:38.536Z,75.10
2023-03-17T07:15:05.989Z,75.10
2023-03-17T07:17:33.677Z,75.10
2023-03-17T07:20:00.878Z,75.10
2023-03-17T07:22:27.771Z,75.10
2023-03-17T07:24:54.809Z,75.20
2023-03-17T07:27:25.290Z,75.30
2023-03-17T07:29:52.996Z,75.50
2023-03-17T07:32:20.179Z,75.50
2023-03-17T07:34:47.208Z,75.40
2023-03-17T07:37:14.261Z,75.40
2023-03-17T07:39:41.274Z,75.40
2023-03-17T07:42:09.617Z,75.40
2023-03-17T07:44:38.335Z,75.40
2023-03-17T07:47:05.490Z,75.50
2023-03-17T07:49:41.201Z,75.50
2023-03-17T07:52:10.441Z,75.60
2023-03-17T07:54:37.788Z,75.60
2023-03-17T07:57:05.497Z,75.70
2023-03-17T07:59:32.789Z,75.90
2023-03-17T08:02:01.476Z,76.00
2023-03-17T08:04:28.960Z,76.10
2023-03-17T08:06:57.314Z,76.10
2023-03-17T08:09:24.537Z,76.10
2023-03-17T08:11:51.641Z,76.00
2023-03-17T08:14:18.813Z,75.90
2023-03-17T08:16:45.941Z,75.70
2023-03-17T08:19:13.118Z,75.60
2023-03-17T08:21:40.177Z,75.60
2023-03-17T08:24:07.488Z,75.70
2023-03-17T08:26:34.641Z,75.70
2023-03-17T08:29:01.784Z,75.60
2023-03-17T08:31:28.840Z,75.50
2023-03-17T08:33:57.259Z,75.40
2023-03-17T08:36:24.472Z,75.50
2023-03-17T08:38:51.989Z,75.40
2023-03-17T08:41:22.810Z,75.00
2023-03-17T08:43:50.917Z,74.60
2023-03-17T08:46:21.214Z,74.50
2023-03-17T08:48:51.088Z,74.40
2023-03-17T08:51:22.093Z,74.20
2023-03-17T08:53:51.815Z,74.10
2023-03-17T08:56:19.307Z,74.20
2023-03-17T08:58:47.161Z,74.30
2023-03-17T09:01:15.657Z,74.40
2023-03-17T09:03:43.766Z,74.30
2023-03-17T09:06:12.389Z,74.30
2023-03-17T09:08:44.990Z,74.40
2023-03-17T09:11:16.614Z,74.40
2023-03-17T09:13:44.873Z,74.30
2023-03-17T09:16:12.897Z,74.30
2023-03-17T09:18:40.125Z,74.40
2023-03-17T09:21:07.479Z,74.40
2023-03-17T09:23:34.753Z,74.30
2023-03-17T09:26:02.328Z,74.20
2023-03-17T09:28:29.662Z,74.40
2023-03-17T09:31:01.391Z,74.50
2023-03-17T09:33:29.038Z,74.40
2023-03-17T09:35:59.449Z,74.90
2023-03-17T09:38:27.764Z,74.90
2023-03-17T09:40:59.182Z,74.90
2023-03-17T09:43:42.957Z,74.80
2023-03-17T09:46:34.709Z,74.50
2023-03-17T09:49:11.963Z,74.00
2023-03-17T09:51:39.672Z,73.70
2023-03-17T09:54:27.659Z,73.30
2023-03-17T09:57:04.506Z,72.90
2023-03-17T09:59:38.562Z,72.90
2023-03-17T10:02:24.035Z,72.60
2023-03-17T10:04:51.753Z,72.90
2023-03-17T10:08:29.997Z,73.30
2023-03-17T10:10:57.908Z,73.50
2023-03-17T10:14:02.126Z,73.30
2023-03-17T10:16:38.409Z,73.30
2023-03-17T10:19:55.510Z,73.10
2023-03-17T10:22:43.013Z,72.80
2023-03-17T10:25:18.514Z,72.50
2023-03-17T10:28:09.485Z,72.30
2023-03-17T10:30:36.716Z,71.30
2023-03-17T10:33:08.800Z,70.70
2023-03-17T10:35:39.484Z,70.70
2023-03-17T10:38:16.231Z,70.70
2023-03-17T10:40:47.916Z,70.30
2023-03-17T10:43:21.738Z,70.10
2023-03-17T10:46:17.593Z,69.50
2023-03-17T10:48:52.949Z,68.80
2023-03-17T10:51:35.653Z,68.40
2023-03-17T10:54:11.658Z,68.30
2023-03-17T10:56:42.545Z,68.60
2023-03-17T10:59:20.009Z,68.70
2023-03-17T11:01:53.008Z,68.60
2023-03-17T11:04:28.193Z,68.40
2023-03-17T11:07:00.273Z,68.50
2023-03-17T11:09:34.052Z,68.10
2023-03-17T11:12:21.666Z,68.00
2023-03-17T11:14:49.358Z,68.20
2023-03-17T11:17:43.102Z,67.70
2023-03-17T11:20:32.941Z,68.00
2023-03-17T11:23:15.751Z,68.10
2023-03-17T11:25:46.453Z,68.10
2023-03-17T11:28:25.094Z,67.50
2023-03-17T11:31:04.739Z,67.40
2023-03-17T11:33:56.799Z,67.50
2023-03-17T11:36:44.764Z,67.50
2023-03-17T11:39:22.073Z,67.00
2023-03-17T11:42:25.863Z,67.00
2023-03-17T11:45:14.627Z,66.40
2023-03-17T11:48:08.220Z,65.70
2023-03-17T11:51:02.225Z,65.00
2023-03-17T11:53:58.869Z,64.80
2023-03-17T11:56:46.217Z,64.70
2023-03-17T11:59:44.288Z,62.70
2023-03-17T12:02:19.840Z,62.60
2023-03-17T12:05:01.329Z,61.90
2023-03-17T12:07:37.607Z,61.90
2023-03-17T12:10:37.734Z,61.70
2023-03-17T12:13:31.113Z,62.00
2023-03-17T12:16:06.693Z,62.10
2023-03-17T12:18:53.494Z,62.00
2023-03-17T12:21:45.850Z,62.50
2023-03-17T12:24:26.752Z,62.90
2023-03-17T12:27:15.050Z,63.50
2023-03-17T12:29:47.427Z,63.30
2023-03-17T12:32:38.189Z,62.60
2023-03-17T12:35:22.446Z,62.00
2023-03-17T12:37:49.692Z,61.90
2023-03-17T12:40:25.128Z,61.60
2023-03-17T12:43:13.558Z,61.00
2023-03-17T12:46:11.831Z,60.80
2023-03-17T12:48:54.313Z,59.30
2023-03-17T12:51:59.060Z,59.20
2023-03-17T12:54:30.538Z,57.90
2023-03-17T12:57:12.388Z,57.10
2023-03-17T12:59:42.825Z,57.40
2023-03-17T13:02:27.673Z,58.10
2023-03-17T13:05:02.707Z,56.90
2023-03-17T13:07:55.599Z,56.40
2023-03-17T13:11:29.849Z,57.20
2023-03-17T13:14:05.865Z,56.90
2023-03-17T13:16:41.283Z,56.40
2023-03-17T13:19:22.897Z,57.60
2023-03-17T13:22:12.533Z,57.30
2023-03-17T13:24:53.520Z,57.10
2023-03-17T13:27:32.452Z,55.50
2023-03-17T13:30:21.851Z,55.80
2023-03-17T13:32:56.519Z,57.10
2023-03-17T13:35:38.741Z,58.20
2023-03-17T13:38:32.680Z,58.00
2023-03-17T13:41:12.326Z,57.10
2023-03-17T13:43:56.230Z,56.00
2023-03-17T13:46:41.815Z,56.90
2023-03-17T13:49:26.562Z,57.40
2023-03-17T13:52:16.405Z,57.90
2023-03-17T13:54:50.664Z,57.70
2023-03-17T13:57:39.015Z,57.40
2023-03-17T14:00:26.377Z,57.00
2023-03-17T14:03:03.790Z,57.30
2023-03-17T14:05:38.061Z,57.40
2023-03-17T14:08:15.921Z,58.00
2023-03-17T14:10:44.556Z,58.00
2023-03-17T14:13:20.645Z,58.70
2023-03-17T14:15:57.077Z,59.10
2023-03-17T14:18:34.965Z,59.40
2023-03-17T14:21:08.929Z,59.50
2023-03-17T14:23:37.620Z,59.40
2023-03-17T14:26:05.157Z,59.70
2023-03-17T14:28:34.491Z,59.90
2023-03-17T14:31:03.440Z,59.90
2023-03-17T14:33:34.619Z,59.60
2023-03-17T14:36:04.424Z,59.30
2023-03-17T14:38:35.388Z,59.10
2023-03-17T14:41:04.968Z,59.10
2023-03-17T14:43:33.887Z,59.30
2023-03-17T14:46:04.076Z,59.70
2023-03-17T14:48:36.929Z,59.80
2023-03-17T14:51:09.030Z,60.00
2023-03-17T14:53:41.439Z,60.40
2023-03-17T14:56:09.006Z,60.70
2023-03-17T14:58:47.942Z,61.00
2023-03-17T15:01:20.973Z,61.20
2023-03-17T15:03:57.192Z,61.30
2023-03-17T15:06:34.094Z,61.10
2023-03-17T15:09:04.687Z,61.10
2023-03-17T15:11:42.194Z,61.40
2023-03-17T15:14:26.695Z,61.80
2023-03-17T15:16:55.736Z,62.00
2023-03-17T15:19:36.603Z,62.30
2023-03-17T15:22:21.522Z,62.40
2023-03-17T15:25:18.538Z,62.50
2023-03-17T15:27:46.502Z,62.60
2023-03-17T15:30:14.457Z,62.70
2023-03-17T15:32:41.619Z,62.80
2023-03-17T15:35:12.507Z,62.90
2023-03-17T15:37:39.930Z,62.80
2023-03-17T15:40:09.405Z,62.80
2023-03-17T15:42:38.499Z,62.90
2023-03-17T15:45:06.778Z,62.90
2023-03-17T15:47:36.782Z,63.00
2023-03-17T15:50:14.825Z,63.10
2023-03-17T15:52:42.442Z,63.10
2023-03-17T15:55:24.631Z,63.10
2023-03-17T15:57:54.982Z,63.20
2023-03-17T16:00:24.482Z,63.30
2023-03-17T16:02:57.428Z,63.50
2023-03-17T16:05:26.984Z,63.70
2023-03-17T16:07:54.446Z,64.00
2023-03-17T16:10:33.172Z,64.20
2023-03-17T16:13:00.507Z,64.50
2023-03-17T16:15:31.431Z,64.50
2023-03-17T16:18:04.289Z,64.60
2023-03-17T16:20:43.357Z,64.90
2023-03-17T16:23:29.267Z,65.10
2023-03-17T16:26:11.846Z,65.10
2023-03-17T16:28:41.455Z,65.20
2023-03-17T16:31:21.050Z,65.50
2023-03-17T16:33:48.994Z,65.70
2023-03-17T16:36:18.287Z,65.80
2023-03-17T16:38:46.581Z,65.70
2023-03-17T16:41:26.088Z,65.60
2023-03-17T16:44:01.751Z,65.80
2023-03-17T16:46:35.031Z,65.90
2023-03-17T16:49:04.247Z,66.00
2023-03-17T16:51:31.477Z,66.10
2023-03-17T16:53:58.514Z,66.30
2023-03-17T16:56:27.444Z,66.40
2023-03-17T16:58:54.450Z,66.60
2023-03-17T17:01:25.092Z,66.70
2023-03-17T17:03:52.580Z,66.80
2023-03-17T17:06:20.630Z,66.80
2023-03-17T17:08:49.220Z,66.80
2023-03-17T17:11:18.328Z,66.80
2023-03-17T17:13:47.612Z,66.80
2023-03-17T17:16:33.115Z,66.80
2023-03-17T17:19:01.852Z,66.80
2023-03-17T17:21:29.874Z,66.90
2023-03-17T17:23:58.749Z,66.90
2023-03-17T17:26:25.804Z,66.90
2023-03-17T17:28:52.938Z,66.90
2023-03-17T17:31:20.053Z,66.90
2023-03-17T17:33:47.148Z,66.90
2023-03-17T17:36:16.739Z,67.00
2023-03-17T17:38:44.153Z,67.00
2023-03-17T17:41:12.654Z,67.10
2023-03-17T17:43:40.267Z,67.30
2023-03-17T17:46:12.578Z,67.40
2023-03-17T17:48:39.727Z,67.60
2023-03-17T17:51:06.654Z,67.70
2023-03-17T17:53:33.634Z,67.90
2023-03-17T17:56:00.974Z,67.90
2023-03-17T17:58:28.071Z,68.10
2023-03-17T18:00:57.206Z,68.20
2023-03-17T18:03:25.907Z,68.40
2023-03-17T18:05:56.607Z,68.50
2023-03-17T18:08:24.827Z,68.70
2023-03-17T18:10:52.503Z,68.80
2023-03-17T18:13:19.661Z,68.90
2023-03-17T18:15:46.910Z,69.00
2023-03-17T18:18:13.957Z,69.10
2023-03-17T18:20:41.305Z,69.10
2023-03-17T18:23:08.669Z,69.10
2023-03-17T18:25:37.276Z,69.20
2023-03-17T18:28:04.773Z,69.20
2023-03-17T18:30:34.778Z,69.30
2023-03-17T18:33:15.518Z,69.40
2023-03-17T18:35:42.925Z,69.60
2023-03-17T18:38:09.963Z,69.70
2023-03-17T18:40:37.372Z,69.90
2023-03-17T18:43:04.646Z,70.10
2023-03-17T18:45:31.626Z,70.30
2023-03-17T18:47:58.707Z,70.50
2023-03-17T18:50:26.566Z,70.70
2023-03-17T18:52:53.901Z,70.90
2023-03-17T18:55:20.899Z,71.10
2023-03-17T18:57:48.007Z,71.30
2023-03-17T19:00:17.431Z,71.50
2023-03-17T19:02:44.828Z,71.60
2023-03-17T19:05:12.818Z,71.70
2023-03-17T19:07:41.091Z,71.90
2023-03-17T19:10:09.940Z,72.00
2023-03-17T19:12:37.495Z,72.10
2023-03-17T19:15:06.711Z,72.20
2023-03-17T19:17:34.369Z,72.10
2023-03-17T19:20:01.797Z,72.10
2023-03-17T19:22:28.959Z,72.10
2023-03-17T19:24:55.925Z,72.10
2023-03-17T19:27:22.907Z,72.10
2023-03-17T19:29:49.913Z,72.20
2023-03-17T19:32:17.306Z,72.20
2023-03-17T19:34:44.322Z,72.30
2023-03-17T19:37:11.645Z,72.40
2023-03-17T19:39:38.852Z,72.50
2023-03-17T19:42:06.031Z,72.50
2023-03-17T19:44:33.756Z,72.70
2023-03-17T19:47:05.066Z,72.70
2023-03-17T19:49:34.034Z,72.70
2023-03-17T19:52:01.420Z,72.80
2023-03-17T19:54:28.499Z,73.00
2023-03-17T19:56:55.643Z,73.20
2023-03-17T19:59:22.854Z,73.30
2023-03-17T20:01:50.400Z,73.40
2023-03-17T20:04:20.912Z,73.60
2023-03-17T20:06:48.015Z,73.80
2023-03-17T20:09:16.115Z,73.90
2023-03-17T20:11:43.083Z,74.00
2023-03-17T20:14:10.014Z,74.00
2023-03-17T20:16:37.168Z,74.10
2023-03-17T20:19:04.662Z,74.20
2023-03-17T20:21:31.718Z,74.30
2023-03-17T20:23:58.797Z,74.40
2023-03-17T20:26:26.135Z,74.40
2023-03-17T20:28:53.900Z,74.50
2023-03-17T20:31:21.219Z,74.60
2023-03-17T20:33:48.422Z,74.90
2023-03-17T20:36:15.520Z,74.90
2023-03-17T20:38:43.868Z,75.10
2023-03-17T20:41:16.153Z,75.20
2023-03-17T20:43:44.337Z,75.40
2023-03-17T20:46:23.870Z,75.50
2023-03-17T20:48:58.876Z,75.70
2023-03-17T20:51:26.743Z,75.90
2023-03-17T20:53:55.150Z,76.00
2023-03-17T20:56:24.214Z,76.20
2023-03-17T20:58:53.195Z,76.30
2023-03-17T21:01:21.533Z,76.40
2023-03-17T21:03:49.672Z,76.60
2023-03-17T21:06:17.733Z,76.70
2023-03-17T21:08:46.182Z,76.90
2023-03-17T21:11:18.759Z,77.10
2023-03-17T21:13:46.569Z,77.30
2023-03-17T21:16:23.920Z,77.60
2023-03-17T21:18:51.506Z,78.10
2023-03-17T21:21:19.011Z,78.10
2023-03-17T21:23:46.827Z,78.30
2023-03-17T21:26:14.718Z,78.50
2023-03-17T21:28:42.627Z,78.70
2023-03-17T21:31:10.588Z,78.90
2023-03-17T21:33:38.148Z,78.90
2023-03-17T21:36:05.976Z,79.00
2023-03-17T21:38:33.234Z,79.30
2023-03-17T21:41:37.950Z,79.40
2023-03-17T21:44:06.476Z,79.60
2023-03-17T21:46:33.574Z,79.90
2023-03-17T21:49:01.571Z,80.00
2023-03-17T21:51:28.920Z,80.10
2023-03-17T21:53:58.082Z,80.30
2023-03-17T21:56:25.091Z,80.40
2023-03-17T21:58:52.248Z,80.50
2023-03-17T22:01:53.413Z,80.60
2023-03-17T22:04:20.682Z,80.70
2023-03-17T22:06:47.761Z,80.70
2023-03-17T22:09:16.465Z,80.70
2023-03-17T22:11:44.628Z,80.70
2023-03-17T22:14:13.310Z,80.70
2023-03-17T22:16:40.521Z,80.70
2023-03-17T22:19:09.945Z,80.70
2023-03-17T22:21:36.950Z,80.70
2023-03-17T22:24:04.080Z,80.70
2023-03-17T22:26:31.088Z,80.70
2023-03-17T22:28:58.526Z,80.70
2023-03-17T22:31:27.813Z,80.70
2023-03-17T22:33:57.054Z,80.70
2023-03-17T22:36:25.692Z,80.70
2023-03-17T22:38:53.320Z,80.70
2023-03-17T22:41:22.935Z,80.70
2023-03-17T22:43:50.772Z,80.70
2023-03-17T22:46:18.299Z,80.80
2023-03-17T22:48:46.433Z,80.80
2023-03-17T22:51:16.904Z,80.80
2023-03-17T22:53:44.616Z,80.80
2023-03-17T22:56:13.017Z,80.70
2023-03-17T22:58:40.983Z,80.70
2023-03-17T23:01:08.683Z,80.70
2023-03-17T23:03:36.258Z,80.70
2023-03-17T23:06:04.834Z,80.70
2023-03-17T23:08:35.207Z,80.70
2023-03-17T23:11:05.992Z,80.70
2023-03-17T23:13:33.369Z,80.70
2023-03-17T23:16:00.310Z,80.70
2023-03-17T23:18:27.310Z,80.70
2023-03-17T23:20:54.315Z,80.70
2023-03-17T23:23:21.380Z,80.70
2023-03-17T23:25:48.425Z,80.80
2023-03-17T23:28:16.035Z,80.80
2023-03-17T23:30:44.026Z,80.80
2023-03-17T23:33:11.420Z,80.90
2023-03-17T23:35:38.824Z,80.90
2023-03-17T23:38:06.114Z,80.90
2023-03-17T23:40:34.581Z,81.00
2023-03-17T23:43:02.319Z,80.90
2023-03-17T23:45:29.333Z,80.90
2023-03-17T23:47:57.584Z,80.90
2023-03-17T23:50:24.820Z,80.90
2023-03-17T23:52:52.177Z,80.80
2023-03-17T23:55:19.299Z,80.70
2023-03-17T23:57:46.508Z,80.60
